Terminal Aerodrome Forecast
Issued by NWS

Home | Current Version | Previous Version | Text Only | Print | Product List | Glossary On
Versions: 1 2 3 4 5 6 7 8 9 10 11 12
787
FTUS46 KPDT 302320
TAFRDM
TAF
KRDM 302320Z 0100/0124 30018G26KT P6SM FEW060 FEW180
     FM010300 33009KT P6SM SKC
     FM011200 17004KT P6SM SCT100 SCT120
     FM011400 17006KT P6SM SCT070 BKN100
     FM011700 30009KT P6SM SCT060 BKN080 BKN110=

USA.gov is the U.S. government's official web portal to all federal, state and local government web resources and services.